createdAt,value
2023-04-14T00:00:13.477Z,99145.46
2023-04-14T00:02:44.295Z,99144.20
2023-04-14T00:05:12.909Z,99142.54
2023-04-14T00:07:41.228Z,99141.82
2023-04-14T00:10:10.521Z,99146.77
2023-04-14T00:12:38.804Z,99148.88
2023-04-14T00:15:07.958Z,99151.30
2023-04-14T00:17:37.938Z,99153.50
2023-04-14T00:20:07.017Z,99155.10
2023-04-14T00:22:35.280Z,99155.23
2023-04-14T00:25:04.162Z,99162.23
2023-04-14T00:27:32.474Z,99160.83
2023-04-14T00:30:01.040Z,99166.50
2023-04-14T00:32:29.828Z,99163.42
2023-04-14T00:35:00.382Z,99155.43
2023-04-14T00:37:31.410Z,99152.02
2023-04-14T00:40:01.101Z,99149.59
2023-04-14T00:42:29.545Z,99144.06
2023-04-14T00:44:57.590Z,99150.83
2023-04-14T00:47:26.699Z,99146.89
2023-04-14T00:49:54.780Z,99145.92
2023-04-14T00:52:22.844Z,99143.13
2023-04-14T00:54:51.305Z,99141.12
2023-04-14T00:57:19.612Z,99146.52
2023-04-14T00:59:48.782Z,99148.88
2023-04-14T01:02:18.308Z,99151.45
2023-04-14T01:04:54.167Z,99151.42
2023-04-14T01:07:23.886Z,99148.95
2023-04-14T01:09:53.472Z,99150.54
2023-04-14T01:12:34.059Z,99148.02
2023-04-14T01:15:15.926Z,99148.59
2023-04-14T01:17:59.312Z,99152.61
2023-04-14T01:20:36.456Z,99157.69
2023-04-14T01:23:08.908Z,99169.57
2023-04-14T01:25:43.210Z,99165.93
2023-04-14T01:28:37.906Z,99170.59
2023-04-14T01:31:56.062Z,99170.09
2023-04-14T01:34:42.819Z,99171.17
2023-04-14T01:37:15.294Z,99168.84
2023-04-14T01:39:47.224Z,99165.17
2023-04-14T01:42:17.435Z,99164.08
2023-04-14T01:44:45.553Z,99162.55
2023-04-14T01:47:15.340Z,99166.98
2023-04-14T01:49:43.913Z,99172.95
2023-04-14T01:52:12.319Z,99171.89
2023-04-14T01:54:41.620Z,99169.35
2023-04-14T01:57:11.369Z,99173.33
2023-04-14T01:59:41.855Z,99172.02
2023-04-14T02:02:11.482Z,99177.65
2023-04-14T02:04:39.994Z,99180.43
2023-04-14T02:07:08.650Z,99183.27
2023-04-14T02:09:36.877Z,99182.31
2023-04-14T02:12:05.340Z,99180.63
2023-04-14T02:14:33.459Z,99179.46
2023-04-14T02:17:03.198Z,99177.60
2023-04-14T02:19:32.110Z,99186.77
2023-04-14T02:22:03.111Z,99191.11
2023-04-14T02:24:32.316Z,99196.00
2023-04-14T02:27:10.968Z,99194.38
2023-04-14T02:29:43.543Z,99192.14
2023-04-14T02:32:22.851Z,99192.57
2023-04-14T02:35:16.958Z,99198.07
2023-04-14T02:37:49.007Z,99202.08
2023-04-14T02:40:20.324Z,99205.43
2023-04-14T02:42:53.041Z,99205.13
2023-04-14T02:45:22.927Z,99206.84
2023-04-14T02:47:59.809Z,99207.06
2023-04-14T02:50:28.862Z,99219.45
2023-04-14T02:53:02.857Z,99221.44
2023-04-14T02:55:35.306Z,99224.02
2023-04-14T02:58:03.653Z,99225.73
2023-04-14T03:00:33.308Z,99221.45
2023-04-14T03:03:02.549Z,99221.73
2023-04-14T03:05:31.372Z,99227.62
2023-04-14T03:08:04.376Z,99223.33
2023-04-14T03:10:33.253Z,99223.02
2023-04-14T03:13:02.524Z,99229.73
2023-04-14T03:15:30.788Z,99228.46
2023-04-14T03:17:59.354Z,99226.25
2023-04-14T03:20:30.156Z,99228.17
2023-04-14T03:23:01.666Z,99225.49
2023-04-14T03:25:33.095Z,99224.43
2023-04-14T03:28:02.916Z,99225.30
2023-04-14T03:30:32.578Z,99231.23
2023-04-14T03:33:04.622Z,99227.45
2023-04-14T03:35:34.511Z,99232.82
2023-04-14T03:38:02.967Z,99229.13
2023-04-14T03:40:32.128Z,99232.75
2023-04-14T03:43:02.669Z,99234.53
2023-04-14T03:45:32.420Z,99240.37
2023-04-14T03:48:03.521Z,99243.55
2023-04-14T03:50:36.928Z,99244.60
2023-04-14T03:53:06.550Z,99249.89
2023-04-14T03:55:34.651Z,99248.45
2023-04-14T03:58:12.456Z,99250.66
2023-04-14T04:00:41.420Z,99248.79
2023-04-14T04:03:10.907Z,99253.63
2023-04-14T04:05:42.164Z,99257.30
2023-04-14T04:08:10.799Z,99262.19
2023-04-14T04:10:39.044Z,99259.35
2023-04-14T04:13:13.560Z,99265.64
2023-04-14T04:15:42.009Z,99261.25
2023-04-14T04:18:11.505Z,99261.70
2023-04-14T04:20:39.836Z,99265.13
2023-04-14T04:23:08.716Z,99267.69
2023-04-14T04:25:37.593Z,99273.85
2023-04-14T04:28:15.565Z,99272.66
2023-04-14T04:30:45.747Z,99279.86
2023-04-14T04:33:15.753Z,99284.57
2023-04-14T04:35:44.314Z,99285.51
2023-04-14T04:38:13.317Z,99286.13
2023-04-14T04:40:43.405Z,99288.05
2023-04-14T04:43:19.407Z,99287.62
2023-04-14T04:46:19.666Z,99290.81
2023-04-14T04:48:52.659Z,99296.58
2023-04-14T04:51:21.131Z,99303.38
2023-04-14T04:53:49.678Z,99306.86
2023-04-14T04:56:21.892Z,99310.13
2023-04-14T04:58:50.531Z,99311.78
2023-04-14T05:01:21.602Z,99313.70
2023-04-14T05:03:50.695Z,99317.02
2023-04-14T05:06:18.971Z,99317.98
2023-04-14T05:08:56.300Z,99322.02
2023-04-14T05:11:24.979Z,99323.98
2023-04-14T05:13:53.228Z,99321.44
2023-04-14T05:16:21.343Z,99320.95
2023-04-14T05:19:00.245Z,99333.44
2023-04-14T05:21:29.365Z,99327.52
2023-04-14T05:23:57.546Z,99329.22
2023-04-14T05:26:49.033Z,99333.20
2023-04-14T05:29:16.342Z,99335.89
2023-04-14T05:31:44.510Z,99338.16
2023-04-14T05:34:12.740Z,99338.34
2023-04-14T05:36:41.720Z,99338.98
2023-04-14T05:39:10.092Z,99339.84
2023-04-14T05:41:39.334Z,99339.36
2023-04-14T05:44:08.836Z,99343.16
2023-04-14T05:46:37.092Z,99343.94
2023-04-14T05:49:06.621Z,99342.61
2023-04-14T05:51:34.970Z,99337.34
2023-04-14T05:54:07.618Z,99345.64
2023-04-14T05:56:36.878Z,99343.65
2023-04-14T05:59:05.052Z,99346.52
2023-04-14T06:01:34.100Z,99347.20
2023-04-14T06:04:04.257Z,99354.67
2023-04-14T06:06:32.984Z,99354.23
2023-04-14T06:09:05.894Z,99358.45
2023-04-14T06:11:34.143Z,99357.52
2023-04-14T06:14:03.213Z,99362.73
2023-04-14T06:16:32.110Z,99361.70
2023-04-14T06:19:04.288Z,99362.28
2023-04-14T06:21:32.800Z,99362.91
2023-04-14T06:24:00.959Z,99367.63
2023-04-14T06:26:29.478Z,99370.29
2023-04-14T06:29:01.314Z,99374.30
2023-04-14T06:31:29.761Z,99379.94
2023-04-14T06:34:00.715Z,99379.34
2023-04-14T06:36:31.834Z,99381.42
2023-04-14T06:39:00.540Z,99377.42
2023-04-14T06:41:33.401Z,99379.31
2023-04-14T06:44:10.035Z,99384.67
2023-04-14T06:46:38.472Z,99384.69
2023-04-14T06:49:08.715Z,99389.08
2023-04-14T06:51:40.279Z,99386.15
2023-04-14T06:54:08.756Z,99384.48
2023-04-14T06:56:36.782Z,99382.73
2023-04-14T06:59:05.085Z,99386.64
2023-04-14T07:01:33.500Z,99391.55
2023-04-14T07:04:06.876Z,99397.04
2023-04-14T07:06:36.234Z,99396.87
2023-04-14T07:09:06.486Z,99399.37
2023-04-14T07:11:34.758Z,99400.44
2023-04-14T07:14:03.568Z,99401.31
2023-04-14T07:16:32.082Z,99411.23
2023-04-14T07:19:01.104Z,99412.07
2023-04-14T07:21:29.646Z,99413.91
2023-04-14T07:24:07.530Z,99410.95
2023-04-14T07:26:37.106Z,99415.35
2023-04-14T07:29:05.356Z,99417.91
2023-04-14T07:31:35.810Z,99415.30
2023-04-14T07:34:04.316Z,99413.44
2023-04-14T07:36:33.039Z,99420.10
2023-04-14T07:39:01.734Z,99421.68
2023-04-14T07:41:30.067Z,99422.43
2023-04-14T07:43:59.707Z,99424.45
2023-04-14T07:46:28.736Z,99427.92
2023-04-14T07:48:57.149Z,99428.11
2023-04-14T07:51:31.548Z,99433.27
2023-04-14T07:54:00.101Z,99426.27
2023-04-14T07:56:28.299Z,99428.31
2023-04-14T07:58:57.363Z,99430.90
2023-04-14T08:01:25.821Z,99432.87
2023-04-14T08:03:54.736Z,99432.89
2023-04-14T08:06:22.983Z,99429.54
2023-04-14T08:08:52.529Z,99431.39
2023-04-14T08:11:20.623Z,99438.52
2023-04-14T08:13:50.083Z,99439.38
2023-04-14T08:16:21.490Z,99438.75
2023-04-14T08:18:51.853Z,99438.01
2023-04-14T08:21:19.919Z,99434.34
2023-04-14T08:23:48.164Z,99433.02
2023-04-14T08:26:16.508Z,99433.38
2023-04-14T08:28:44.844Z,99427.23
2023-04-14T08:31:16.730Z,99428.77
2023-04-14T08:33:46.298Z,99421.49
2023-04-14T08:36:14.338Z,99417.49
2023-04-14T08:38:46.501Z,99413.23
2023-04-14T08:41:17.417Z,99410.60
2023-04-14T08:43:45.809Z,99415.30
2023-04-14T08:49:13.579Z,99418.42
2023-04-14T08:51:43.778Z,99417.15
2023-04-14T08:54:12.602Z,99418.83
2023-04-14T08:56:42.724Z,99419.85
2023-04-14T08:59:11.636Z,99421.55
2023-04-14T09:01:40.266Z,99424.02
2023-04-14T09:04:09.322Z,99426.20
2023-04-14T09:06:38.184Z,99428.52
2023-04-14T09:09:10.757Z,99442.40
2023-04-14T09:11:39.034Z,99445.14
2023-04-14T09:14:07.180Z,99450.73
2023-04-14T09:16:36.187Z,99447.27
2023-04-14T09:19:07.092Z,99444.45
2023-04-14T09:21:53.830Z,99448.48
2023-04-14T09:24:32.117Z,99441.49
2023-04-14T09:27:05.486Z,99444.30
2023-04-14T09:29:33.871Z,99441.25
2023-04-14T09:32:02.096Z,99441.23
2023-04-14T09:34:32.439Z,99436.69
2023-04-14T09:37:07.543Z,99437.60
2023-04-14T09:39:36.854Z,99442.13
2023-04-14T09:42:05.557Z,99443.09
2023-04-14T09:44:34.126Z,99442.25
2023-04-14T09:47:06.778Z,99445.77
2023-04-14T09:49:35.673Z,99449.55
2023-04-14T09:52:09.053Z,99449.97
2023-04-14T09:54:40.178Z,99450.10
2023-04-14T09:57:08.415Z,99448.23
2023-04-14T09:59:37.986Z,99457.89
2023-04-14T10:02:09.953Z,99459.00
2023-04-14T10:04:38.325Z,99460.54
2023-04-14T10:07:08.371Z,99460.65
2023-04-14T10:09:38.561Z,99456.97
2023-04-14T10:12:09.839Z,99465.49
2023-04-14T10:14:43.489Z,99466.24
2023-04-14T10:17:13.776Z,99471.66
2023-04-14T10:19:42.150Z,99473.33
2023-04-14T10:22:10.363Z,99474.72
2023-04-14T10:24:38.756Z,99471.73
2023-04-14T10:27:06.898Z,99466.04
2023-04-14T10:29:36.160Z,99461.64
2023-04-14T10:32:08.864Z,99466.40
2023-04-14T10:34:37.473Z,99465.83
2023-04-14T10:37:15.673Z,99468.02
2023-04-14T10:39:43.919Z,99469.11
2023-04-14T10:42:12.502Z,99472.03
2023-04-14T10:44:40.930Z,99473.44
2023-04-14T10:47:09.141Z,99473.02
2023-04-14T10:49:38.783Z,99471.63
2023-04-14T10:52:16.882Z,99469.11
2023-04-14T10:54:54.386Z,99473.22
2023-04-14T10:57:25.999Z,99476.02
2023-04-14T10:59:55.955Z,99483.38
2023-04-14T11:02:30.872Z,99487.78
2023-04-14T11:05:04.597Z,99490.09
2023-04-14T11:07:47.330Z,99497.76
2023-04-14T11:10:21.532Z,99502.13
2023-04-14T11:12:54.838Z,99506.56
2023-04-14T11:15:50.015Z,99507.88
2023-04-14T11:18:29.029Z,99508.64
2023-04-14T11:21:05.009Z,99508.77
2023-04-14T11:23:36.118Z,99513.69
2023-04-14T11:26:12.335Z,99517.33
2023-04-14T11:28:44.674Z,99515.54
2023-04-14T11:31:15.236Z,99521.75
2023-04-14T11:33:44.750Z,99520.85
2023-04-14T11:36:16.660Z,99522.90
2023-04-14T11:38:47.941Z,99514.58
2023-04-14T11:41:16.526Z,99520.11
2023-04-14T11:43:47.189Z,99513.94
2023-04-14T11:46:18.371Z,99512.34
2023-04-14T11:48:55.155Z,99509.07
2023-04-14T11:51:32.441Z,99507.67
2023-04-14T11:54:01.689Z,99505.95
2023-04-14T11:56:30.889Z,99507.67
2023-04-14T11:59:00.996Z,99508.44
2023-04-14T12:01:32.207Z,99511.80
2023-04-14T12:04:01.554Z,99512.64
2023-04-14T12:06:30.248Z,99512.56
2023-04-14T12:09:08.624Z,99513.00
2023-04-14T12:11:37.643Z,99513.48
2023-04-14T12:14:05.906Z,99504.16
2023-04-14T12:16:34.189Z,99501.66
2023-04-14T12:19:03.986Z,99502.80
2023-04-14T12:21:33.052Z,99507.30
2023-04-14T12:24:01.154Z,99510.80
2023-04-14T12:26:30.123Z,99515.46
2023-04-14T12:28:59.726Z,99514.34
2023-04-14T12:31:30.029Z,99507.24
2023-04-14T12:34:03.670Z,99503.25
2023-04-14T12:36:48.150Z,99501.54
2023-04-14T12:39:22.334Z,99503.79
2023-04-14T12:41:50.813Z,99506.77
2023-04-14T12:44:20.845Z,99506.10
2023-04-14T12:46:50.582Z,99504.36
2023-04-14T12:49:31.227Z,99509.67
2023-04-14T12:52:00.428Z,99509.35
2023-04-14T12:54:45.927Z,99507.21
2023-04-14T12:57:14.204Z,99514.08
2023-04-14T12:59:43.286Z,99511.20
2023-04-14T13:02:11.470Z,99513.21
2023-04-14T13:04:40.071Z,99509.95
2023-04-14T13:07:08.233Z,99505.25
2023-04-14T13:09:36.345Z,99508.23
2023-04-14T13:12:04.524Z,99510.35
2023-04-14T13:14:32.535Z,99508.78
2023-04-14T13:17:01.614Z,99507.79
2023-04-14T13:19:30.058Z,99513.90
2023-04-14T13:21:58.079Z,99515.62
2023-04-14T13:24:26.982Z,99524.24
2023-04-14T13:26:55.071Z,99519.52
2023-04-14T13:29:25.487Z,99512.56
2023-04-14T13:31:55.491Z,99513.58
2023-04-14T13:34:23.798Z,99512.61
2023-04-14T13:36:53.408Z,99515.62
2023-04-14T13:39:22.835Z,99510.60
2023-04-14T13:41:52.263Z,99512.28
2023-04-14T13:44:20.347Z,99517.44
2023-04-14T13:46:51.580Z,99521.38
2023-04-14T13:49:19.687Z,99524.20
2023-04-14T13:51:47.718Z,99518.06
2023-04-14T13:54:15.751Z,99519.25
2023-04-14T13:56:44.531Z,99523.82
2023-04-14T13:59:16.243Z,99520.63
2023-04-14T14:01:44.691Z,99527.60
2023-04-14T14:04:13.807Z,99531.67
2023-04-14T14:06:42.905Z,99533.58
2023-04-14T14:09:11.113Z,99534.20
2023-04-14T14:11:44.224Z,99535.67
2023-04-14T14:14:13.064Z,99535.01
2023-04-14T14:16:41.653Z,99536.51
2023-04-14T14:19:18.270Z,99533.96
2023-04-14T14:21:47.331Z,99537.87
2023-04-14T14:24:15.471Z,99538.92
2023-04-14T14:26:43.686Z,99544.95
2023-04-14T14:29:12.072Z,99540.08
2023-04-14T14:31:40.513Z,99544.33
2023-04-14T14:34:09.730Z,99546.84
2023-04-14T14:36:37.802Z,99543.37
2023-04-14T14:39:07.178Z,99541.74
2023-04-14T14:41:36.131Z,99548.38
2023-04-14T14:44:04.959Z,99556.49
2023-04-14T14:46:36.494Z,99553.86
2023-04-14T14:49:05.529Z,99554.36
2023-04-14T14:51:34.008Z,99558.50
2023-04-14T14:54:10.057Z,99559.28
2023-04-14T14:56:38.818Z,99555.40
2023-04-14T14:59:08.535Z,99558.44
2023-04-14T15:01:37.331Z,99561.70
2023-04-14T15:04:07.829Z,99561.46
2023-04-14T15:06:36.584Z,99561.60
2023-04-14T15:09:05.672Z,99570.73
2023-04-14T15:11:36.806Z,99571.02
2023-04-14T15:14:05.259Z,99577.85
2023-04-14T15:16:33.539Z,99582.64
2023-04-14T15:19:03.470Z,99583.02
2023-04-14T15:21:33.007Z,99585.67
2023-04-14T15:24:01.785Z,99590.42
2023-04-14T15:26:32.223Z,99593.59
2023-04-14T15:29:02.554Z,99597.02
2023-04-14T15:31:31.169Z,99600.27
2023-04-14T15:34:02.494Z,99593.61
2023-04-14T15:36:34.022Z,99596.30
2023-04-14T15:39:02.285Z,99603.55
2023-04-14T15:41:30.415Z,99605.59
2023-04-14T15:43:58.785Z,99610.42
2023-04-14T15:46:27.715Z,99615.44
2023-04-14T15:48:57.707Z,99618.77
2023-04-14T15:51:26.394Z,99626.85
2023-04-14T15:53:54.525Z,99622.75
2023-04-14T15:56:26.047Z,99618.61
2023-04-14T15:58:54.149Z,99625.08
2023-04-14T16:01:22.407Z,99629.06
2023-04-14T16:03:52.717Z,99634.98
2023-04-14T16:06:21.587Z,99641.97
2023-04-14T16:08:49.818Z,99644.18
2023-04-14T16:11:18.054Z,99646.02
2023-04-14T16:13:56.939Z,99650.56
2023-04-14T16:16:26.418Z,99649.74
2023-04-14T16:18:55.119Z,99656.69
2023-04-14T16:21:23.655Z,99653.66
2023-04-14T16:23:51.914Z,99656.61
2023-04-14T16:26:20.321Z,99659.23
2023-04-14T16:28:52.672Z,99666.45
2023-04-14T16:31:21.956Z,99657.58
2023-04-14T16:33:50.488Z,99652.97
2023-04-14T16:36:19.255Z,99663.98
2023-04-14T16:38:51.014Z,99672.00
2023-04-14T16:41:19.307Z,99667.08
2023-04-14T16:43:47.663Z,99683.02
2023-04-14T16:46:16.744Z,99680.30
2023-04-14T16:48:44.940Z,99679.73
2023-04-14T16:51:15.035Z,99681.03
2023-04-14T16:53:46.035Z,99684.80
2023-04-14T16:56:14.186Z,99694.04
2023-04-14T16:58:45.320Z,99694.86
2023-04-14T17:01:13.757Z,99698.80
2023-04-14T17:03:42.640Z,99702.48
2023-04-14T17:06:11.004Z,99710.25
2023-04-14T17:08:41.685Z,99707.09
2023-04-14T17:11:09.837Z,99715.38
2023-04-14T17:13:38.392Z,99710.90
2023-04-14T17:16:11.982Z,99716.30
2023-04-14T17:18:41.574Z,99718.41
2023-04-14T17:21:09.678Z,99723.44
2023-04-14T17:23:49.022Z,99721.58
2023-04-14T17:26:17.749Z,99729.35
2023-04-14T17:28:46.222Z,99728.02
2023-04-14T17:31:21.070Z,99732.29
2023-04-14T17:33:49.751Z,99734.27
2023-04-14T17:36:18.437Z,99743.29
2023-04-14T17:38:47.268Z,99747.23
2023-04-14T17:41:16.220Z,99747.86
2023-04-14T17:43:46.911Z,99749.64
2023-04-14T17:46:16.790Z,99747.08
2023-04-14T17:48:45.068Z,99751.56
2023-04-14T17:51:13.487Z,99751.85
2023-04-14T17:53:43.065Z,99751.15
2023-04-14T17:56:11.693Z,99754.53
2023-04-14T17:58:40.648Z,99758.37
2023-04-14T18:01:09.874Z,99755.80
2023-04-14T18:03:38.432Z,99764.81
2023-04-14T18:06:07.120Z,99766.38
2023-04-14T18:08:36.820Z,99758.64
2023-04-14T18:11:06.862Z,99760.94
2023-04-14T18:13:36.351Z,99761.36
2023-04-14T18:16:05.522Z,99760.12
2023-04-14T18:18:36.419Z,99759.34
2023-04-14T18:21:04.863Z,99759.88
2023-04-14T18:23:33.198Z,99753.33
2023-04-14T18:28:39.118Z,99742.41
2023-04-14T18:31:07.863Z,99744.52
2023-04-14T18:33:36.453Z,99747.90
2023-04-14T18:36:05.309Z,99742.03
2023-04-14T18:38:33.407Z,99742.71
2023-04-14T18:41:03.703Z,99749.67
2023-04-14T18:43:33.321Z,99753.17
2023-04-14T18:46:02.554Z,99748.02
2023-04-14T18:48:34.579Z,99749.10
2023-04-14T18:51:08.023Z,99743.96
2023-04-14T18:53:36.198Z,99745.16
2023-04-14T18:56:04.779Z,99750.37
2023-04-14T18:58:34.272Z,99745.70
2023-04-14T19:01:02.804Z,99749.74
2023-04-14T19:03:33.247Z,99756.77
2023-04-14T19:06:01.781Z,99757.84
2023-04-14T19:08:30.620Z,99760.98
2023-04-14T19:11:05.765Z,99759.00
2023-04-14T19:13:34.213Z,99755.70
2023-04-14T19:16:09.101Z,99762.52
2023-04-14T19:18:37.268Z,99761.50
2023-04-14T19:21:08.982Z,99758.80
2023-04-14T19:23:41.087Z,99762.38
2023-04-14T19:26:11.530Z,99753.73
2023-04-14T19:28:42.613Z,99760.41
2023-04-14T19:31:12.865Z,99766.77
2023-04-14T19:33:41.935Z,99760.02
2023-04-14T19:36:14.524Z,99755.88
2023-04-14T19:38:42.986Z,99759.46
2023-04-14T19:41:11.363Z,99761.27
2023-04-14T19:43:40.484Z,99762.00
2023-04-14T19:46:10.511Z,99749.23
2023-04-14T19:48:39.810Z,99745.47
2023-04-14T19:51:09.426Z,99742.07
2023-04-14T19:53:39.775Z,99744.20
2023-04-14T19:56:08.840Z,99746.06
2023-04-14T19:58:37.004Z,99750.42
2023-04-14T20:01:06.185Z,99758.83
2023-04-14T20:03:36.328Z,99760.11
2023-04-14T20:06:04.617Z,99766.00
2023-04-14T20:08:34.735Z,99767.07
2023-04-14T20:11:05.358Z,99772.14
2023-04-14T20:13:35.565Z,99765.92
2023-04-14T20:16:10.507Z,99769.48
2023-04-14T20:18:58.473Z,99778.27
2023-04-14T20:21:27.358Z,99777.41
2023-04-14T20:23:55.641Z,99775.98
2023-04-14T20:26:23.654Z,99780.10
2023-04-14T20:28:51.704Z,99787.80
2023-04-14T20:31:20.049Z,99790.98
2023-04-14T20:33:51.202Z,99794.02
2023-04-14T20:36:19.434Z,99794.18
2023-04-14T20:38:47.593Z,99798.83
2023-04-14T20:41:19.435Z,99806.60
2023-04-14T20:43:48.129Z,99804.30
2023-04-14T20:46:16.358Z,99805.98
2023-04-14T20:48:49.047Z,99807.27
2023-04-14T20:51:18.576Z,99815.79
2023-04-14T20:53:46.742Z,99815.48
2023-04-14T20:56:20.147Z,99825.21
2023-04-14T20:58:49.334Z,99824.08
2023-04-14T21:01:17.508Z,99833.45
2023-04-14T21:03:46.835Z,99833.41
2023-04-14T21:07:17.231Z,99847.35
2023-04-14T21:09:45.482Z,99841.45
2023-04-14T21:12:18.937Z,99851.59
2023-04-14T21:15:29.924Z,99852.08
2023-04-14T21:17:37.219Z,99856.98
2023-04-14T21:20:06.307Z,99865.42
2023-04-14T21:22:35.315Z,99871.56
2023-04-14T21:25:03.622Z,99872.00
2023-04-14T21:27:32.209Z,99878.31
2023-04-14T21:30:00.532Z,99883.84
2023-04-14T21:32:29.134Z,99884.95
2023-04-14T21:34:57.425Z,99894.76
2023-04-14T21:37:25.858Z,99897.91
2023-04-14T21:39:55.410Z,99895.52
2023-04-14T21:42:23.872Z,99909.57
2023-04-14T21:44:52.040Z,99911.16
2023-04-14T21:47:20.080Z,99919.31
2023-04-14T21:49:49.014Z,99915.21
2023-04-14T21:52:18.006Z,99910.94
2023-04-14T21:54:47.614Z,99916.05
2023-04-14T21:57:16.222Z,99917.92
2023-04-14T21:59:47.550Z,99921.10
2023-04-14T22:02:15.759Z,99929.56
2023-04-14T22:04:44.287Z,99928.39
2023-04-14T22:07:12.503Z,99931.45
2023-04-14T22:09:43.817Z,99931.34
2023-04-14T22:12:13.204Z,99934.73
2023-04-14T22:14:41.584Z,99944.95
2023-04-14T22:17:12.256Z,99938.65
2023-04-14T22:19:43.327Z,99938.19
2023-04-14T22:22:11.463Z,99938.14
2023-04-14T22:24:40.765Z,99951.85
2023-04-14T22:27:09.407Z,99942.85
2023-04-14T22:29:37.962Z,99946.48
2023-04-14T22:32:11.555Z,99951.59
2023-04-14T22:34:39.604Z,99952.29
2023-04-14T22:37:07.860Z,99949.44
2023-04-14T22:39:40.769Z,99950.34
2023-04-14T22:42:09.314Z,99954.39
2023-04-14T22:44:37.410Z,99960.39
2023-04-14T22:47:09.689Z,99954.61
2023-04-14T22:49:39.063Z,99944.08
2023-04-14T22:52:07.594Z,99944.48
2023-04-14T22:54:36.663Z,99951.74
2023-04-14T22:57:05.010Z,99953.30
2023-04-14T22:59:33.046Z,99958.73
2023-04-14T23:02:02.845Z,99953.19
2023-04-14T23:04:31.649Z,99951.98
2023-04-14T23:06:59.833Z,99943.59
2023-04-14T23:09:30.494Z,99941.40
2023-04-14T23:12:01.296Z,99934.19
2023-04-14T23:14:29.496Z,99927.45
2023-04-14T23:17:04.349Z,99929.17
2023-04-14T23:19:33.685Z,99924.92
2023-04-14T23:22:02.499Z,99927.27
2023-04-14T23:24:30.751Z,99925.54
2023-04-14T23:26:58.942Z,99920.92
2023-04-14T23:29:27.030Z,99911.39
2023-04-14T23:31:55.232Z,99906.60
2023-04-14T23:34:25.598Z,99911.88
2023-04-14T23:36:54.529Z,99918.23
2023-04-14T23:39:23.218Z,99922.78
2023-04-14T23:41:54.618Z,99930.34
2023-04-14T23:44:23.476Z,99929.97
2023-04-14T23:46:51.889Z,99930.44
2023-04-14T23:49:32.785Z,99928.67
2023-04-14T23:52:05.284Z,99917.66
2023-04-14T23:54:33.635Z,99912.23
2023-04-14T23:57:01.879Z,99911.20
2023-04-14T23:59:30.498Z,99907.09
